Haileybury, Canada
Current Conditions -  °F | °C
As of 5:00 AM on Sunday 23 Nov 2014 (Local Time) from CYXR Reporting Station
Haze Haze  
Wind Chill: 26°   Ceiling: 4000
Heat Index: 32°   Visibility: 3mi
Dew Point: 32°   Wind: 6mph
Humidity: 100%   Direction: 110°ESE
Pressure: 29.82"   Gusts: NA
Location:  47.45°N, 79.64°W
Report Text: CYXR 231000Z AUTO 11005KT 3SM BR OVC040 00/M00 A2982 RMK PRESRR SLP112
Loading
Personal Weather Stations






























Interactive Weather Map New forecast layout! Learn more

10-Day Weather Forecast

Advertisements
Track Severe Weather on mobile